createdAt,value
2022-09-23T00:01:24.833Z,28.70
2022-09-23T00:04:07.022Z,25.80
2022-09-23T00:06:34.693Z,29.20
2022-09-23T00:09:02.292Z,26.20
2022-09-23T00:11:29.915Z,25.40
2022-09-23T00:13:59.717Z,27.60
2022-09-23T00:16:34.266Z,22.30
2022-09-23T00:19:03.761Z,19.70
2022-09-23T00:21:31.432Z,19.70
2022-09-23T00:24:03.110Z,21.40
2022-09-23T00:26:30.744Z,22.10
2022-09-23T00:29:01.464Z,16.70
2022-09-23T00:31:29.196Z,20.50
2022-09-23T00:33:59.216Z,20.10
2022-09-23T00:36:28.900Z,25.50
2022-09-23T00:38:56.913Z,34.00
2022-09-23T00:41:25.186Z,69.20
2022-09-23T00:44:00.781Z,139.30
2022-09-23T00:46:44.478Z,56.70
2022-09-23T00:49:29.701Z,91.10
2022-09-23T00:52:06.754Z,115.70
2022-09-23T00:54:35.605Z,200.20
2022-09-23T00:57:05.261Z,209.80
2022-09-23T00:59:33.533Z,183.10
2022-09-23T01:02:03.067Z,177.00
2022-09-23T01:04:31.628Z,174.00
2022-09-23T01:06:59.261Z,145.80
2022-09-23T01:09:26.881Z,133.70
2022-09-23T01:12:03.014Z,97.00
2022-09-23T01:15:08.408Z,55.10
2022-09-23T01:17:55.002Z,45.10
2022-09-23T01:20:42.602Z,38.90
2022-09-23T01:23:44.853Z,39.10
2022-09-23T01:26:34.272Z,37.90
2022-09-23T01:29:33.753Z,30.80
2022-09-23T01:38:32.723Z,30.00
2022-09-23T01:44:36.930Z,21.60
2022-09-23T01:47:11.605Z,53.40
2022-09-23T01:49:48.494Z,40.20
2022-09-23T01:52:24.486Z,29.70
2022-09-23T01:57:41.339Z,49.90
2022-09-23T02:00:13.799Z,26.80
2022-09-23T02:02:49.568Z,17.80
2022-09-23T02:05:33.374Z,22.20
2022-09-23T02:08:10.955Z,19.60
2022-09-23T02:10:48.743Z,16.30
2022-09-23T02:13:29.843Z,14.80
2022-09-23T02:16:02.180Z,12.10
2022-09-23T02:18:52.088Z,18.90
2022-09-23T02:21:25.018Z,17.40
2022-09-23T02:24:00.483Z,16.30
2022-09-23T02:26:33.821Z,22.70
2022-09-23T02:29:08.085Z,21.20
2022-09-23T02:31:58.263Z,17.40
2022-09-23T02:35:06.014Z,12.10
2022-09-23T02:38:31.369Z,13.40
2022-09-23T02:41:05.580Z,13.70
2022-09-23T02:43:51.238Z,11.40
2022-09-23T02:46:20.265Z,14.60
2022-09-23T02:48:55.598Z,17.10
2022-09-23T02:51:28.733Z,13.70
2022-09-23T02:53:57.752Z,11.40
2022-09-23T02:56:25.480Z,13.80
2022-09-23T02:58:55.002Z,12.20
2022-09-23T03:01:56.439Z,13.10
2022-09-23T03:04:43.213Z,13.90
2022-09-23T03:07:14.396Z,17.60
2022-09-23T03:09:54.364Z,14.30
2022-09-23T03:12:41.098Z,16.20
2022-09-23T03:18:20.399Z,11.50
2022-09-23T03:21:09.420Z,10.60
2022-09-23T03:23:40.496Z,11.30
2022-09-23T03:26:16.404Z,13.00
2022-09-23T03:28:45.366Z,11.70
2022-09-23T03:31:15.181Z,15.70
2022-09-23T03:33:48.474Z,13.70
2022-09-23T03:36:38.501Z,13.10
2022-09-23T03:39:10.876Z,17.30
2022-09-23T03:41:57.016Z,22.90
2022-09-23T03:44:24.647Z,22.40
2022-09-23T03:46:52.146Z,26.70
2022-09-23T03:49:35.424Z,27.90
2022-09-23T03:52:07.726Z,33.60
2022-09-23T03:54:36.711Z,34.20
2022-09-23T03:57:04.477Z,23.90
2022-09-23T03:59:32.657Z,43.90
2022-09-23T04:02:00.692Z,27.00
2022-09-23T04:04:29.721Z,13.40
2022-09-23T04:06:57.462Z,15.70
2022-09-23T04:09:25.333Z,14.60
2022-09-23T04:11:53.509Z,15.20
2022-09-23T04:14:22.348Z,16.80
2022-09-23T04:16:50.588Z,13.10
2022-09-23T04:19:18.759Z,12.20
2022-09-23T04:21:46.650Z,11.90
2022-09-23T04:24:14.938Z,11.90
2022-09-23T04:26:43.083Z,10.00
2022-09-23T04:29:11.930Z,8.30
2022-09-23T04:31:39.787Z,44.00
2022-09-23T04:34:09.212Z,44.00
2022-09-23T04:36:36.852Z,29.10
2022-09-23T04:39:05.674Z,200.40
2022-09-23T04:41:33.391Z,155.00
2022-09-23T04:44:01.246Z,96.80
2022-09-23T04:46:28.948Z,52.40
2022-09-23T04:48:57.048Z,37.40
2022-09-23T04:51:26.186Z,23.00
2022-09-23T04:53:59.028Z,26.10
2022-09-23T04:56:29.543Z,25.80
2022-09-23T04:58:58.273Z,39.30
2022-09-23T05:01:28.297Z,51.20
2022-09-23T05:03:58.501Z,35.20
2022-09-23T05:06:26.106Z,43.40
2022-09-23T05:08:55.505Z,31.50
2022-09-23T05:11:24.492Z,24.50
2022-09-23T05:13:54.042Z,27.10
2022-09-23T05:16:23.717Z,36.40
2022-09-23T05:18:52.272Z,43.20
2022-09-23T05:21:23.885Z,32.10
2022-09-23T05:23:55.823Z,26.20
2022-09-23T05:26:25.899Z,55.30
2022-09-23T05:28:54.661Z,28.70
2022-09-23T05:31:30.820Z,29.20
2022-09-23T05:34:03.703Z,23.70
2022-09-23T05:36:37.976Z,76.60
2022-09-23T05:39:08.236Z,56.70
2022-09-23T05:41:36.525Z,31.90
2022-09-23T05:44:07.539Z,35.00
2022-09-23T05:46:38.520Z,28.10
2022-09-23T05:49:07.882Z,41.70
2022-09-23T05:51:45.960Z,37.90
2022-09-23T05:54:23.588Z,30.00
2022-09-23T05:56:51.368Z,37.50
2022-09-23T05:59:21.801Z,35.90
2022-09-23T06:01:56.302Z,33.80
2022-09-23T06:04:26.497Z,31.40
2022-09-23T06:06:54.522Z,53.80
2022-09-23T06:09:25.111Z,37.40
2022-09-23T06:11:52.716Z,34.70
2022-09-23T06:14:20.330Z,54.10
2022-09-23T06:16:48.045Z,49.20
2022-09-23T06:19:15.881Z,49.60
2022-09-23T06:21:44.045Z,43.40
2022-09-23T06:24:16.016Z,40.70
2022-09-23T06:26:47.837Z,40.80
2022-09-23T06:29:18.407Z,35.40
2022-09-23T06:31:46.170Z,26.90
2022-09-23T06:34:15.991Z,38.30
2022-09-23T06:36:48.538Z,46.90
2022-09-23T06:39:49.646Z,42.50
2022-09-23T06:42:20.003Z,32.30
2022-09-23T06:45:10.879Z,29.30
2022-09-23T06:47:42.168Z,25.40
2022-09-23T06:50:16.467Z,27.10
2022-09-23T06:52:51.549Z,29.50
2022-09-23T06:55:19.315Z,31.50
2022-09-23T06:57:47.292Z,23.20
2022-09-23T07:00:32.901Z,21.70
2022-09-23T07:03:30.327Z,25.50
2022-09-23T07:07:18.494Z,25.40
2022-09-23T07:12:43.581Z,24.30
2022-09-23T07:15:12.155Z,28.80
2022-09-23T07:17:42.848Z,21.50
2022-09-23T07:20:11.484Z,22.60
2022-09-23T07:22:39.493Z,23.60
2022-09-23T07:25:07.625Z,23.70
2022-09-23T07:27:35.344Z,25.00
2022-09-23T07:30:03.479Z,25.10
2022-09-23T07:32:42.491Z,24.20
2022-09-23T07:35:14.986Z,19.80
2022-09-23T07:37:42.966Z,20.80
2022-09-23T07:40:10.758Z,17.10
2022-09-23T07:42:40.748Z,14.00
2022-09-23T07:45:09.494Z,12.70
2022-09-23T07:47:39.359Z,17.10
2022-09-23T07:50:11.558Z,13.00
2022-09-23T07:52:39.524Z,10.60
2022-09-23T07:55:07.613Z,11.20
2022-09-23T07:57:35.407Z,10.50
2022-09-23T08:00:04.329Z,11.60
2022-09-23T08:02:32.222Z,14.10
2022-09-23T08:05:00.675Z,9.80
2022-09-23T08:07:29.143Z,13.00
2022-09-23T08:09:57.028Z,13.20
2022-09-23T08:12:24.857Z,13.40
2022-09-23T08:14:52.646Z,11.10
2022-09-23T08:17:20.408Z,11.70
2022-09-23T08:19:48.160Z,10.20
2022-09-23T08:22:16.469Z,8.10
2022-09-23T08:24:44.257Z,8.80
2022-09-23T08:27:12.778Z,7.80
2022-09-23T08:29:41.634Z,7.10
2022-09-23T08:32:09.781Z,7.50
2022-09-23T08:34:37.934Z,8.80
2022-09-23T08:37:11.011Z,8.00
2022-09-23T08:39:40.007Z,7.10
2022-09-23T08:42:37.283Z,8.30
2022-09-23T08:48:58.404Z,7.80
2022-09-23T08:51:39.171Z,6.90
2022-09-23T08:57:12.297Z,6.30
2022-09-23T09:00:15.524Z,8.50
2022-09-23T09:02:43.480Z,6.30
2022-09-23T09:05:26.488Z,6.10
2022-09-23T09:08:23.558Z,6.50
2022-09-23T09:10:55.183Z,6.40
2022-09-23T09:13:45.105Z,6.40
2022-09-23T09:19:43.631Z,7.80
2022-09-23T09:22:42.134Z,7.40
2022-09-23T09:25:42.586Z,6.90
2022-09-23T09:28:33.171Z,7.90
2022-09-23T09:34:01.022Z,7.60
2022-09-23T09:37:07.696Z,7.70
2022-09-23T09:39:37.359Z,5.10
2022-09-23T09:42:16.730Z,5.30
2022-09-23T09:47:51.817Z,8.60
2022-09-23T09:50:38.792Z,10.80
2022-09-23T09:53:25.638Z,5.50
2022-09-23T09:56:12.986Z,5.80
2022-09-23T09:58:44.081Z,6.00
2022-09-23T10:01:20.940Z,4.80
2022-09-23T10:03:59.886Z,5.10
2022-09-23T10:06:32.596Z,6.80
2022-09-23T10:09:22.133Z,5.10
2022-09-23T10:14:47.109Z,7.00
2022-09-23T10:17:24.529Z,8.00
2022-09-23T10:20:01.024Z,8.30
2022-09-23T10:22:35.380Z,8.90
2022-09-23T10:29:24.421Z,6.00
2022-09-23T10:35:26.716Z,5.40
2022-09-23T10:38:12.281Z,5.00
2022-09-23T10:41:01.620Z,4.80
2022-09-23T10:44:11.468Z,6.00
2022-09-23T10:49:43.201Z,6.00
2022-09-23T10:52:46.449Z,6.00
2022-09-23T10:55:45.757Z,4.60
2022-09-23T11:01:52.885Z,5.60
2022-09-23T11:07:33.826Z,4.70
2022-09-23T11:10:45.112Z,16.00
2022-09-23T11:13:32.428Z,4.80
2022-09-23T11:16:19.198Z,5.10
2022-09-23T11:19:24.075Z,7.00
2022-09-23T11:22:36.726Z,7.10
2022-09-23T11:25:07.659Z,6.10
2022-09-23T11:27:56.707Z,6.30
2022-09-23T11:30:44.663Z,5.70
2022-09-23T11:33:54.612Z,7.30
2022-09-23T11:46:27.559Z,11.10
2022-09-23T11:59:04.712Z,7.90
2022-09-23T12:01:47.851Z,7.90
2022-09-23T12:05:16.640Z,10.30
2022-09-23T12:08:15.494Z,20.80
2022-09-23T12:14:18.608Z,12.50
2022-09-23T12:20:00.823Z,9.60
2022-09-23T12:23:06.606Z,37.20
2022-09-23T12:28:56.763Z,11.70
2022-09-23T12:34:34.660Z,21.20
2022-09-23T12:39:54.115Z,27.70
2022-09-23T12:42:26.663Z,10.40
2022-09-23T12:45:35.187Z,8.20
2022-09-23T12:49:03.266Z,8.80
2022-09-23T12:51:35.017Z,15.40
2022-09-23T12:54:05.810Z,15.50
2022-09-23T12:56:36.563Z,11.70
2022-09-23T12:59:28.076Z,6.00
2022-09-23T13:01:56.878Z,6.60
2022-09-23T13:04:57.522Z,11.40
2022-09-23T13:07:34.228Z,22.20
2022-09-23T13:10:17.054Z,15.20
2022-09-23T13:12:46.660Z,6.40
2022-09-23T13:15:24.591Z,7.40
2022-09-23T13:17:52.448Z,8.70
2022-09-23T13:20:20.608Z,5.00
2022-09-23T13:22:54.138Z,6.40
2022-09-23T13:25:33.395Z,14.10
2022-09-23T13:28:03.817Z,5.70
2022-09-23T13:30:31.495Z,6.40
2022-09-23T13:33:10.386Z,38.80
2022-09-23T13:35:46.143Z,31.30
2022-09-23T13:38:32.393Z,25.10
2022-09-23T13:41:05.856Z,24.20
2022-09-23T13:43:45.213Z,18.00
2022-09-23T13:46:18.810Z,9.90
2022-09-23T13:48:50.688Z,17.70
2022-09-23T13:51:33.716Z,7.60
2022-09-23T13:54:05.898Z,4.60
2022-09-23T13:56:38.692Z,8.30
2022-09-23T13:59:25.845Z,13.10
2022-09-23T14:02:16.266Z,10.60
2022-09-23T14:04:44.854Z,12.50
2022-09-23T14:07:15.602Z,5.80
2022-09-23T14:09:47.610Z,5.50
2022-09-23T14:12:22.056Z,17.50
2022-09-23T14:14:51.987Z,10.80
2022-09-23T14:17:25.476Z,6.90
2022-09-23T14:19:53.172Z,5.40
2022-09-23T14:22:29.136Z,5.60
2022-09-23T14:24:58.492Z,7.80
2022-09-23T14:27:33.853Z,7.50
2022-09-23T14:30:03.729Z,6.30
2022-09-23T14:32:35.222Z,8.70
2022-09-23T14:35:03.822Z,13.40
2022-09-23T14:37:52.085Z,34.10
2022-09-23T14:40:24.930Z,186.50
2022-09-23T14:43:26.833Z,23.40
2022-09-23T14:45:57.671Z,7.10
2022-09-23T14:48:37.359Z,6.50
2022-09-23T14:51:12.017Z,8.20
2022-09-23T14:53:53.188Z,12.90
2022-09-23T14:56:23.193Z,12.30
2022-09-23T14:58:55.427Z,19.00
2022-09-23T15:01:34.308Z,16.00
2022-09-23T15:04:28.165Z,11.50
2022-09-23T15:07:17.783Z,12.90
2022-09-23T15:09:46.504Z,15.80
2022-09-23T15:12:26.551Z,16.70
2022-09-23T15:14:58.166Z,19.60
2022-09-23T15:17:43.234Z,22.60
2022-09-23T15:20:16.841Z,24.20
2022-09-23T15:22:46.276Z,23.30
2022-09-23T15:25:35.812Z,24.50
2022-09-23T15:28:18.270Z,54.00
2022-09-23T15:30:45.932Z,22.10
2022-09-23T15:33:17.764Z,17.30
2022-09-23T15:35:48.955Z,15.20
2022-09-23T15:38:17.795Z,12.90
2022-09-23T15:40:45.965Z,10.10
2022-09-23T15:43:21.135Z,12.40
2022-09-23T15:46:07.829Z,16.40
2022-09-23T15:48:39.488Z,18.50
2022-09-23T15:51:09.955Z,21.70
2022-09-23T15:53:39.428Z,26.30
2022-09-23T15:56:08.153Z,46.50
2022-09-23T15:58:35.960Z,67.40
2022-09-23T16:01:03.755Z,61.00
2022-09-23T16:03:31.696Z,70.10
2022-09-23T16:06:03.208Z,66.40
2022-09-23T16:08:32.788Z,56.60
2022-09-23T16:11:02.985Z,75.50
2022-09-23T16:13:33.337Z,153.20
2022-09-23T16:16:02.105Z,208.60
2022-09-23T16:18:30.306Z,231.00
2022-09-23T16:20:59.452Z,143.70
2022-09-23T16:23:37.482Z,106.90
2022-09-23T16:26:27.121Z,63.70
2022-09-23T16:28:56.869Z,43.40
2022-09-23T16:31:31.623Z,67.70
2022-09-23T16:34:02.513Z,66.40
2022-09-23T16:36:33.207Z,52.70
2022-09-23T16:39:06.783Z,50.50
2022-09-23T16:41:35.037Z,47.50
2022-09-23T16:44:04.814Z,52.10
2022-09-23T16:46:33.719Z,36.30
2022-09-23T16:49:01.604Z,29.80
2022-09-23T16:51:41.177Z,234.20
2022-09-23T16:54:13.187Z,329.60
2022-09-23T16:56:45.142Z,231.70
2022-09-23T16:59:14.074Z,56.00
2022-09-23T17:01:59.997Z,20.50
2022-09-23T17:04:28.451Z,10.80
2022-09-23T17:06:56.640Z,24.40
2022-09-23T17:09:28.974Z,54.80
2022-09-23T17:12:16.663Z,33.20
2022-09-23T17:14:44.392Z,38.60
2022-09-23T17:17:12.111Z,36.50
2022-09-23T17:19:41.471Z,38.20
2022-09-23T17:22:09.967Z,36.70
2022-09-23T17:24:37.911Z,91.20
2022-09-23T17:27:05.609Z,97.70
2022-09-23T17:29:33.338Z,117.50
2022-09-23T17:32:01.411Z,111.00
2022-09-23T17:34:29.271Z,115.70
2022-09-23T17:36:57.026Z,81.80
2022-09-23T17:39:24.905Z,54.30
2022-09-23T17:41:58.284Z,38.30
2022-09-23T17:44:27.066Z,27.50
2022-09-23T17:46:54.753Z,279.40
2022-09-23T17:49:24.373Z,514.40
2022-09-23T17:51:52.135Z,522.50
2022-09-23T17:54:20.047Z,450.90
2022-09-23T17:56:47.762Z,311.50
2022-09-23T17:59:15.474Z,93.30
2022-09-23T18:01:44.830Z,57.10
2022-09-23T18:04:12.966Z,55.10
2022-09-23T18:06:40.679Z,42.40
2022-09-23T18:09:08.776Z,34.30
2022-09-23T18:11:42.569Z,44.60
2022-09-23T18:14:22.324Z,19.70
2022-09-23T18:16:53.682Z,45.70
2022-09-23T18:19:23.463Z,56.40
2022-09-23T18:21:55.944Z,43.10
2022-09-23T18:24:32.483Z,82.50
2022-09-23T18:27:02.175Z,123.60
2022-09-23T18:29:30.449Z,153.10
2022-09-23T18:31:59.370Z,179.60
2022-09-23T18:34:28.530Z,157.00
2022-09-23T18:36:56.316Z,140.70
2022-09-23T18:39:26.578Z,85.90
2022-09-23T18:41:54.817Z,80.10
2022-09-23T18:44:23.450Z,139.20
2022-09-23T18:46:51.344Z,84.10
2022-09-23T18:49:35.043Z,46.30
2022-09-23T18:52:02.799Z,75.10
2022-09-23T18:54:31.443Z,111.30
2022-09-23T18:56:59.323Z,145.40
2022-09-23T18:59:29.800Z,424.10
2022-09-23T19:01:59.105Z,348.70
2022-09-23T19:04:29.162Z,287.70
2022-09-23T19:06:57.929Z,152.50
2022-09-23T19:09:26.097Z,114.70
2022-09-23T19:11:53.996Z,100.90
2022-09-23T19:14:22.242Z,109.50
2022-09-23T19:16:50.907Z,129.40
2022-09-23T19:19:18.682Z,75.40
2022-09-23T19:21:46.413Z,31.10
2022-09-23T19:24:19.752Z,32.30
2022-09-23T19:26:48.466Z,74.30
2022-09-23T19:29:21.912Z,103.50
2022-09-23T19:31:50.969Z,137.20
2022-09-23T19:34:36.012Z,420.60
2022-09-23T19:37:05.262Z,600.70
2022-09-23T19:39:40.376Z,537.90
2022-09-23T19:42:08.136Z,380.00
2022-09-23T19:44:37.819Z,245.90
2022-09-23T19:47:06.052Z,112.40
2022-09-23T19:49:33.914Z,78.50
2022-09-23T19:52:01.921Z,75.70
2022-09-23T19:54:29.828Z,69.70
2022-09-23T19:56:57.557Z,68.90
2022-09-23T19:59:26.605Z,66.80
2022-09-23T20:02:03.096Z,63.70
2022-09-23T20:04:31.721Z,55.90
2022-09-23T20:06:59.638Z,55.00
2022-09-23T20:09:29.011Z,51.20
2022-09-23T20:12:01.248Z,45.70
2022-09-23T20:14:34.301Z,47.80
2022-09-23T20:17:03.001Z,38.40
2022-09-23T20:19:30.962Z,39.90
2022-09-23T20:22:14.642Z,63.70
2022-09-23T20:24:42.450Z,59.00
2022-09-23T20:27:10.849Z,46.50
2022-09-23T20:29:38.687Z,31.70
2022-09-23T20:32:06.500Z,27.90
2022-09-23T20:34:34.430Z,55.90
2022-09-23T20:37:02.229Z,103.40
2022-09-23T20:39:33.565Z,116.80
2022-09-23T20:42:03.717Z,150.00
2022-09-23T20:44:32.222Z,183.40
2022-09-23T20:47:00.512Z,59.20
2022-09-23T20:49:32.955Z,28.20
2022-09-23T20:52:04.482Z,36.30
2022-09-23T20:54:32.230Z,40.10
2022-09-23T20:57:02.245Z,16.80
2022-09-23T20:59:30.128Z,11.80
2022-09-23T21:01:58.766Z,11.30
2022-09-23T21:04:28.856Z,28.10
2022-09-23T21:06:58.259Z,17.30
2022-09-23T21:09:27.317Z,31.00
2022-09-23T21:11:57.206Z,37.00
2022-09-23T21:14:25.327Z,108.30
2022-09-23T21:16:55.004Z,87.20
2022-09-23T21:19:24.347Z,32.80
2022-09-23T21:21:52.013Z,33.40
2022-09-23T21:27:08.710Z,50.30
2022-09-23T21:29:36.483Z,50.10
2022-09-23T21:32:10.252Z,59.80
2022-09-23T21:34:38.561Z,44.70
2022-09-23T21:37:06.389Z,29.90
2022-09-23T21:39:34.117Z,16.70
2022-09-23T21:42:01.904Z,11.90
2022-09-23T21:44:29.569Z,20.60
2022-09-23T21:46:57.574Z,19.00
2022-09-23T21:49:25.336Z,14.10
2022-09-23T21:51:55.101Z,16.30
2022-09-23T21:54:22.999Z,14.40
2022-09-23T21:56:50.751Z,12.70
2022-09-23T21:59:18.489Z,13.50
2022-09-23T22:01:49.311Z,12.70
2022-09-23T22:04:23.568Z,56.30
2022-09-23T22:06:51.447Z,137.10
2022-09-23T22:09:21.382Z,78.20
2022-09-23T22:12:05.074Z,83.10
2022-09-23T22:14:33.516Z,53.00
2022-09-23T22:17:03.832Z,40.80
2022-09-23T22:19:44.198Z,37.00
2022-09-23T22:22:16.584Z,22.30
2022-09-23T22:24:47.104Z,36.50
2022-09-23T22:27:18.241Z,132.70
2022-09-23T22:30:02.213Z,183.10
2022-09-23T22:32:46.074Z,82.50
2022-09-23T22:35:37.747Z,91.40
2022-09-23T22:38:05.587Z,82.10
2022-09-23T22:40:35.941Z,53.30
2022-09-23T22:43:03.856Z,35.70
2022-09-23T22:46:01.459Z,28.80
2022-09-23T22:48:32.481Z,21.00
2022-09-23T22:51:14.300Z,21.30
2022-09-23T22:53:43.737Z,15.90
2022-09-23T22:56:11.959Z,17.20
2022-09-23T22:58:46.271Z,32.80
2022-09-23T23:01:14.227Z,45.60
2022-09-23T23:03:44.584Z,89.90
2022-09-23T23:06:12.565Z,131.40
2022-09-23T23:08:40.589Z,85.70
2022-09-23T23:11:10.185Z,80.80
2022-09-23T23:13:43.060Z,65.00
2022-09-23T23:16:13.093Z,56.10
2022-09-23T23:18:45.538Z,36.60
2022-09-23T23:21:21.584Z,41.40
2022-09-23T23:23:53.797Z,142.70
2022-09-23T23:26:27.071Z,92.50
2022-09-23T23:28:57.039Z,90.50
2022-09-23T23:31:27.733Z,83.20
2022-09-23T23:33:55.776Z,88.00
2022-09-23T23:36:26.674Z,78.20
2022-09-23T23:38:54.788Z,52.10
2022-09-23T23:41:23.279Z,28.00
2022-09-23T23:43:59.269Z,22.10
2022-09-23T23:46:30.725Z,19.90
2022-09-23T23:48:59.752Z,15.80
2022-09-23T23:51:27.928Z,23.50
2022-09-23T23:53:59.142Z,36.00
2022-09-23T23:56:27.623Z,39.60
2022-09-23T23:59:03.061Z,31.40
